createdAt,value
2019-02-26T00:07:16.269Z,2.39
2019-02-26T00:17:17.465Z,2.26
2019-02-26T00:27:18.537Z,2.09
2019-02-26T00:37:28.454Z,2.29
2019-02-26T00:47:33.804Z,2.15
2019-02-26T00:57:36.492Z,2.19
2019-02-26T01:07:36.699Z,2.05
2019-02-26T01:17:39.596Z,1.93
2019-02-26T01:27:43.199Z,2.25
2019-02-26T01:37:43.059Z,1.76
2019-02-26T01:47:47.646Z,1.87
2019-02-26T01:57:46.636Z,1.66
2019-02-26T02:07:49.577Z,1.32
2019-02-26T02:17:50.718Z,1.15
2019-02-26T02:27:54.474Z,1.41
2019-02-26T02:37:57.088Z,1.22
2019-02-26T02:48:00.399Z,1.35
2019-02-26T02:58:03.429Z,1.33
2019-02-26T03:08:13.398Z,1.01
2019-02-26T03:18:14.857Z,0.96
2019-02-26T03:28:16.597Z,0.72
2019-02-26T03:38:22.932Z,0.89
2019-02-26T03:48:25.287Z,0.78
2019-02-26T03:58:26.102Z,0.79
2019-02-26T04:08:29.965Z,0.90
2019-02-26T04:18:34.152Z,0.83
2019-02-26T04:28:37.197Z,0.83
2019-02-26T04:39:03.521Z,0.87
2019-02-26T04:49:07.300Z,1.33
2019-02-26T04:59:09.829Z,1.03
2019-02-26T05:09:17.829Z,0.72
2019-02-26T05:19:21.549Z,0.86
2019-02-26T05:29:21.351Z,-0.02
2019-02-26T05:39:24.210Z,0.29
2019-02-26T05:49:34.388Z,0.37
2019-02-26T05:59:33.957Z,0.27
2019-02-26T06:19:49.149Z,0.04
2019-02-26T06:29:52.878Z,0.26
2019-02-26T06:39:54.819Z,0.40
2019-02-26T06:50:02.766Z,0.86
2019-02-26T07:00:20.995Z,1.17
2019-02-26T07:10:24.321Z,2.35
2019-02-26T07:20:39.969Z,4.34
2019-02-26T07:30:44.144Z,4.58
2019-02-26T07:40:44.605Z,2.47
2019-02-26T07:50:48.171Z,4.79
2019-02-26T08:00:52.452Z,3.45
2019-02-26T08:10:53.374Z,4.49
2019-02-26T08:21:03.016Z,5.44
2019-02-26T08:31:05.313Z,4.08
2019-02-26T08:41:06.393Z,5.40
2019-02-26T08:51:10.692Z,4.90
2019-02-26T09:01:15.800Z,6.03
2019-02-26T09:11:16.922Z,6.82
2019-02-26T09:21:20.448Z,6.77
2019-02-26T09:31:20.578Z,6.94
2019-02-26T09:41:21.559Z,9.55
2019-02-26T09:51:22.330Z,10.25
2019-02-26T10:01:22.991Z,9.09
2019-02-26T10:11:27.403Z,9.11
2019-02-26T10:21:26.318Z,10.39
2019-02-26T10:31:27.673Z,10.87
2019-02-26T10:41:31.481Z,10.31
2019-02-26T10:51:32.137Z,10.75
2019-02-26T11:01:33.708Z,11.60
2019-02-26T11:11:35.613Z,12.92
2019-02-26T11:21:40.375Z,13.44
2019-02-26T11:31:44.552Z,13.08
2019-02-26T11:41:44.988Z,13.69
2019-02-26T11:51:45.899Z,14.39
2019-02-26T12:01:46.566Z,15.14
2019-02-26T12:11:47.483Z,16.82
2019-02-26T12:21:49.527Z,18.69
2019-02-26T12:31:53.801Z,17.44
2019-02-26T12:41:53.599Z,19.31
2019-02-26T12:51:56.689Z,18.75
2019-02-26T13:01:57.056Z,19.21
2019-02-26T13:12:02.423Z,19.85
2019-02-26T13:22:06.742Z,19.71
2019-02-26T13:42:14.090Z,18.88
2019-02-26T13:52:13.359Z,20.67
2019-02-26T14:02:18.459Z,20.64
2019-02-26T14:12:19.100Z,20.21
2019-02-26T14:22:19.796Z,20.91
2019-02-26T14:32:20.738Z,20.38
2019-02-26T14:42:21.767Z,20.22
2019-02-26T14:52:22.928Z,21.03
2019-02-26T15:02:23.665Z,21.27
2019-02-26T15:12:24.680Z,21.98
2019-02-26T15:22:25.559Z,21.25
2019-02-26T15:32:26.215Z,20.91
2019-02-26T15:42:27.093Z,20.54
2019-02-26T15:52:27.847Z,19.99
2019-02-26T16:02:59.412Z,19.72
2019-02-26T16:23:21.754Z,20.66
2019-02-26T16:33:22.455Z,20.80
2019-02-26T16:43:23.098Z,19.65
2019-02-26T16:53:23.829Z,18.34
2019-02-26T17:03:24.504Z,16.17
2019-02-26T17:13:25.338Z,14.04
2019-02-26T17:23:26.589Z,12.53
2019-02-26T17:33:32.999Z,12.05
2019-02-26T17:43:36.678Z,11.36
2019-02-26T17:53:40.133Z,10.34
2019-02-26T18:03:44.657Z,9.74
2019-02-26T18:13:43.617Z,9.39
2019-02-26T18:23:44.252Z,8.98
2019-02-26T18:33:45.693Z,8.81
2019-02-26T18:43:47.544Z,8.99
2019-02-26T18:53:53.377Z,8.95
2019-02-26T19:03:54.286Z,8.73
2019-02-26T19:13:54.934Z,8.69
2019-02-26T19:23:58.589Z,7.02
2019-02-26T19:33:59.305Z,7.45
2019-02-26T19:44:00.693Z,7.31
2019-02-26T19:54:01.581Z,6.93
2019-02-26T20:04:02.327Z,6.76
2019-02-26T20:14:04.932Z,6.77
2019-02-26T20:24:05.729Z,6.42
2019-02-26T20:34:07.321Z,6.09
2019-02-26T20:44:10.164Z,5.61
2019-02-26T20:54:12.225Z,5.49
2019-02-26T21:04:13.002Z,5.60
2019-02-26T21:14:13.640Z,5.32
2019-02-26T21:24:14.558Z,5.47
2019-02-26T21:34:15.733Z,5.07
2019-02-26T21:44:16.641Z,5.04
2019-02-26T21:54:17.523Z,4.68
2019-02-26T22:04:18.178Z,3.96
2019-02-26T22:14:18.972Z,3.96
2019-02-26T22:24:23.591Z,4.06
2019-02-26T22:34:24.277Z,4.20
2019-02-26T22:44:24.886Z,4.43
2019-02-26T22:54:25.592Z,3.88
2019-02-26T23:04:26.271Z,3.39
2019-02-26T23:14:26.972Z,3.52
2019-02-26T23:24:28.469Z,3.52
2019-02-26T23:34:29.167Z,3.34
2019-02-26T23:44:33.026Z,2.98
2019-02-26T23:54:33.660Z,2.92
